Archival Weather

Half Moon Bay

Half Moon Bay, California (KHAF)

Report from: Thursday, September 21, 2023 4:35 AM PDT
Current time: Sunday, July 14, 2024 2:42 AM PDT

Current weather – Weather history – Daily summaries
Weather forecast

Present weatherHaze
Temperature14.0°C (57.2°F)
Dew point11.0°C (51.8°F)
Winds 7 kts (3.6 m/s, 8.1 mph) Southeast (140°)
Visibility5 mi. (8 km)
Clouds Few clouds 4,000 ft. (1,219 m)
Altimeter29.85 in.Hg (1011 mB)
Relative humidity82 %
Density altitude148 ft. (45 m)
Remarks Fully automated report
Automated weather observing station with precipitation discriminator
Flight conditions Visual Meteorological Conditions
Raw dataKHAF 211135Z AUTO 14007KT 5SM HZ FEW040 14/11 A2985 RMK AO2
An error has occurred. This application may no longer respond until reloaded. Reload 🗙